KCMH

John Glenn Columbus International Airport

Columbus, Ohio, USA
METAR KCMH 220951Z 20004KT 10SM BKN006 OVC075 19/18 A3002 RMK AO2 RAE12 SLP160 P0000 T01940183
Observed Flight Rules
May-22 @ 09:51 UTC (27 minutes ago) Instrument Flight Rules
Wind Visibility Clouds
200° at 4 knots 10 miles
  • Broken at 600' AGL
  • Overcast at 7,500' AGL
Temperatures Readings Precipitation
Current 19°C / 66°F
Dewpoint 18°C / 64°F
Humidity 94%
Altimeter 30.02" Hg
Pressure 1016 hPa
Elevation 247
Current Rain 0.005
METAR KCMH 220951Z 20004KT 10SM BKN006 OVC075 19/18 A3002 RMK AO2 RAE12 SLP160 P0000 T01940183
Observed Flight Rules
May-22 @ 09:51 UTC
(27 minutes ago)
IFR
Wind Visibility
200° at 4 knots 10 miles
Clouds
  • Broken at 600' AGL
  • Overcast at 7,500' AGL
Temperature Dewpoint
19°C / 66°F 18°C / 64°F
Humidity Altimeter Pressure
94% 30.02" Hg 1016 hPa
Current Rain
0.005